Flight Track Log - Related Links

Times and Time Zones

All times are in EDT time to prevent confusion due to time zone crossing. See the N205MS flight status page for this flight to view local times or setup timezone preferences in your user account.

Time Position Orientation Groundspeed Altitude Reporting Facility
EDT Latitude Longitude Course Direction KTS MPH feet Rate Location/Type
Wed 02:07:48 PM 41.4167 -73.1167 180° South 134 154 3,200  Level New York TRACON
Wed 02:08:48 PM 41.3667 -73.1167 180° South 166 191 3,000 -100 Descending New York TRACON
Wed 02:09:48 PM 41.3333 -73.1333 201° Southwest 172 198 3,000  Level New York TRACON
Wed 02:10:48 PM 41.2833 -73.1500 176° South 170 196 3,000  Level New York TRACON
Wed 02:11:00 PM 41.2780 -73.1283 176° South  Level FlightAware Approximate
Wed 02:11:54 PM 41.2333 -73.1667 194° South 174 200 3,000  Level New York TRACON
Wed 02:12:54 PM 41.1833 -73.1833 194° South 175 201 3,000  Level New York TRACON
Wed 02:13:00 PM 41.2113 -73.2352 180° South  Level Estimated
Wed 02:13:54 PM 41.1333 -73.2000 194° South 175 201 3,000  Level New York TRACON
Wed 02:14:48 PM 41.0833 -73.2167 194° South 175 201 3,000  Level New York TRACON
Wed 02:15:54 PM 41.0333 -73.2333 194° South 176 203 3,000  Level New York TRACON
Wed 02:16:54 PM 40.9833 -73.2333 180° South 178 205 3,000  Level New York TRACON
Wed 02:17:48 PM 40.9500 -73.2500 201° Southwest 180 207 3,000  Level New York TRACON
Wed 02:18:48 PM 40.9000 -73.2667 194° South 175 201 3,000  Level New York TRACON
Wed 02:19:48 PM 40.8500 -73.2833 194° South 176 203 3,000 -316 Level New York TRACON
Wed 02:20:42 PM 40.8167 -73.3000 201° Southwest 183 211 2,400 -600 Descending New York TRACON
Wed 02:21:48 PM 40.8000 -73.3667 252° West 164 189 1,800 -476 Descending New York TRACON
Wed 02:22:48 PM 40.7667 -73.4167 229° Southwest 146 168 1,400 -684 Descending New York TRACON
Wed 02:23:42 PM 40.7500 -73.4167 180° South 104 120 500 -1,000 Descending New York TRACON
Wed 02:25:00 PM 40.7288 -73.4134 229° Southwest  Level Estimated
Wed 02:32:00 PM 40.7288 -73.4134 229° Southwest  Level Estimated
Wed 02:33:00 PM 40.7288 -73.4134 229° Southwest  Level Estimated

Login

Don't have an account? Register now (free) for customized features, flight alerts, and more!